createdAt,value
2023-05-14T00:02:00.970Z,4.95
2023-05-14T00:05:05.918Z,5.25
2023-05-14T00:08:08.273Z,4.60
2023-05-14T00:11:12.899Z,4.35
2023-05-14T00:14:16.254Z,4.93
2023-05-14T00:17:22.028Z,4.20
2023-05-14T00:20:24.398Z,4.47
2023-05-14T00:23:26.877Z,4.95
2023-05-14T00:26:32.867Z,4.50
2023-05-14T00:29:39.710Z,4.93
2023-05-14T00:32:42.214Z,3.95
2023-05-14T00:35:44.535Z,4.72
2023-05-14T00:38:49.081Z,4.22
2023-05-14T00:41:53.900Z,4.65
2023-05-14T00:44:56.130Z,4.03
2023-05-14T00:48:01.038Z,4.32
2023-05-14T00:51:03.767Z,4.68
2023-05-14T00:54:14.745Z,4.30
2023-05-14T00:57:19.786Z,4.05
2023-05-14T01:00:22.607Z,4.45
2023-05-14T01:03:30.700Z,4.07
2023-05-14T01:06:52.041Z,3.95
2023-05-14T01:10:23.277Z,3.90
2023-05-14T01:14:10.356Z,3.70
2023-05-14T01:17:14.607Z,3.40
2023-05-14T01:20:17.251Z,4.22
2023-05-14T01:23:19.483Z,3.70
2023-05-14T01:26:24.148Z,4.35
2023-05-14T01:29:31.722Z,4.30
2023-05-14T01:32:34.199Z,4.47
2023-05-14T01:35:37.315Z,3.90
2023-05-14T01:38:41.699Z,4.03
2023-05-14T01:41:45.548Z,3.88
2023-05-14T01:44:50.240Z,4.07
2023-05-14T01:47:54.122Z,4.25
2023-05-14T01:50:56.649Z,4.05
2023-05-14T01:53:58.975Z,3.50
2023-05-14T01:57:01.393Z,3.80
2023-05-14T02:00:04.428Z,3.95
2023-05-14T02:03:16.080Z,4.05
2023-05-14T02:06:20.788Z,3.92
2023-05-14T02:12:26.785Z,4.00
2023-05-14T02:15:31.517Z,3.60
2023-05-14T02:18:36.152Z,3.92
2023-05-14T02:21:39.239Z,3.80
2023-05-14T02:24:44.945Z,3.85
2023-05-14T02:31:01.192Z,3.60
2023-05-14T02:34:09.348Z,5.15
2023-05-14T02:37:13.901Z,3.80
2023-05-14T02:40:18.503Z,4.30
2023-05-14T02:43:25.389Z,3.88
2023-05-14T02:46:33.774Z,3.63
2023-05-14T02:49:40.213Z,3.90
2023-05-14T02:52:42.519Z,3.65
2023-05-14T02:55:44.854Z,4.07
2023-05-14T02:58:51.519Z,4.10
2023-05-14T03:01:56.013Z,3.72
2023-05-14T03:04:58.690Z,3.70
2023-05-14T03:08:03.402Z,4.13
2023-05-14T03:11:06.920Z,3.78
2023-05-14T03:14:11.783Z,3.75
2023-05-14T03:17:14.233Z,4.20
2023-05-14T03:20:18.842Z,3.20
2023-05-14T03:23:23.896Z,3.53
2023-05-14T03:26:28.604Z,3.50
2023-05-14T03:29:33.084Z,3.63
2023-05-14T03:32:35.429Z,3.70
2023-05-14T03:35:40.002Z,3.33
2023-05-14T03:38:46.986Z,3.80
2023-05-14T03:41:57.012Z,3.67
2023-05-14T03:45:04.699Z,4.10
2023-05-14T03:48:07.387Z,4.15
2023-05-14T03:51:09.816Z,3.30
2023-05-14T03:54:14.377Z,3.60
2023-05-14T03:57:19.391Z,2.97
2023-05-14T04:00:22.000Z,3.85
2023-05-14T04:03:32.231Z,2.90
2023-05-14T04:06:34.776Z,3.67
2023-05-14T04:09:37.701Z,3.63
2023-05-14T04:12:40.097Z,3.55
2023-05-14T04:15:42.904Z,3.60
2023-05-14T04:18:47.656Z,3.40
2023-05-14T04:21:50.693Z,3.10
2023-05-14T04:24:53.263Z,3.35
2023-05-14T04:27:58.617Z,3.35
2023-05-14T04:31:05.605Z,4.18
2023-05-14T04:34:07.936Z,4.10
2023-05-14T04:37:12.861Z,4.10
2023-05-14T04:40:18.118Z,4.03
2023-05-14T04:43:25.060Z,3.63
2023-05-14T04:46:30.213Z,3.88
2023-05-14T04:49:34.835Z,3.03
2023-05-14T04:52:37.785Z,3.47
2023-05-14T04:55:40.011Z,3.65
2023-05-14T04:58:42.548Z,3.28
2023-05-14T05:01:47.197Z,3.20
2023-05-14T05:04:49.574Z,3.20
2023-05-14T05:07:52.018Z,3.72
2023-05-14T05:10:54.246Z,3.42
2023-05-14T05:13:56.519Z,3.40
2023-05-14T05:16:58.855Z,3.40
2023-05-14T05:20:01.137Z,3.30
2023-05-14T05:23:08.388Z,3.55
2023-05-14T05:26:12.271Z,3.50
2023-05-14T05:29:14.493Z,3.40
2023-05-14T05:32:16.810Z,3.90
2023-05-14T05:35:19.143Z,3.47
2023-05-14T05:38:21.357Z,3.55
2023-05-14T05:41:23.655Z,3.53
2023-05-14T05:44:30.756Z,3.78
2023-05-14T05:47:33.130Z,3.83
2023-05-14T05:50:35.519Z,3.88
2023-05-14T05:53:37.874Z,3.53
2023-05-14T05:56:40.303Z,3.60
2023-05-14T05:59:42.645Z,3.40
2023-05-14T06:02:45.072Z,3.53
2023-05-14T06:05:48.409Z,3.45
2023-05-14T06:08:51.109Z,4.22
2023-05-14T06:15:01.331Z,3.45
2023-05-14T06:18:03.720Z,3.70
2023-05-14T06:21:08.605Z,3.97
2023-05-14T06:24:16.457Z,3.90
2023-05-14T06:27:19.026Z,4.28
2023-05-14T06:30:21.593Z,3.63
2023-05-14T06:33:30.663Z,3.55
2023-05-14T06:36:35.501Z,4.00
2023-05-14T06:39:38.400Z,4.10
2023-05-14T06:42:40.801Z,4.00
2023-05-14T06:45:48.982Z,4.07
2023-05-14T06:48:53.619Z,4.10
2023-05-14T06:51:55.928Z,3.95
2023-05-14T06:54:59.383Z,3.88
2023-05-14T06:58:01.880Z,3.75
2023-05-14T07:01:04.600Z,4.20
2023-05-14T07:04:06.944Z,3.70
2023-05-14T07:07:10.598Z,4.32
2023-05-14T07:10:12.857Z,4.10
2023-05-14T07:13:19.838Z,3.75
2023-05-14T07:16:22.335Z,3.97
2023-05-14T07:19:28.746Z,4.72
2023-05-14T07:22:33.527Z,3.50
2023-05-14T07:25:35.931Z,4.03
2023-05-14T07:28:40.654Z,3.88
2023-05-14T07:31:45.471Z,3.63
2023-05-14T07:34:47.810Z,3.60
2023-05-14T07:37:52.980Z,4.13
2023-05-14T07:40:57.621Z,3.95
2023-05-14T07:44:01.956Z,3.92
2023-05-14T07:47:08.761Z,4.10
2023-05-14T07:50:11.700Z,4.38
2023-05-14T07:53:16.433Z,3.90
2023-05-14T07:56:21.414Z,4.40
2023-05-14T07:59:26.166Z,4.18
2023-05-14T08:02:33.422Z,3.85
2023-05-14T08:05:38.095Z,4.75
2023-05-14T08:08:40.472Z,4.22
2023-05-14T08:11:45.493Z,4.03
2023-05-14T08:14:47.928Z,4.55
2023-05-14T08:17:52.502Z,4.35
2023-05-14T08:20:54.770Z,4.65
2023-05-14T08:23:59.306Z,4.60
2023-05-14T08:27:03.959Z,4.40
2023-05-14T08:30:09.126Z,4.72
2023-05-14T08:33:13.924Z,5.35
2023-05-14T08:36:16.194Z,4.38
2023-05-14T08:39:18.401Z,4.53
2023-05-14T08:42:27.023Z,4.72
2023-05-14T08:45:34.437Z,4.82
2023-05-14T08:48:42.253Z,5.05
2023-05-14T08:51:49.801Z,5.07
2023-05-14T08:54:54.110Z,5.10
2023-05-14T08:57:56.686Z,4.68
2023-05-14T09:00:59.538Z,4.82
2023-05-14T09:04:07.127Z,4.13
2023-05-14T09:07:09.540Z,5.13
2023-05-14T09:10:15.429Z,5.28
2023-05-14T09:13:20.171Z,4.45
2023-05-14T09:16:25.945Z,5.10
2023-05-14T09:19:31.058Z,5.45
2023-05-14T09:22:34.905Z,4.30
2023-05-14T09:25:40.156Z,4.53
2023-05-14T09:28:48.117Z,4.95
2023-05-14T09:31:51.999Z,5.18
2023-05-14T09:34:54.319Z,4.50
2023-05-14T09:37:56.569Z,4.93
2023-05-14T09:41:01.378Z,4.18
2023-05-14T09:44:05.365Z,4.57
2023-05-14T09:47:08.927Z,4.75
2023-05-14T09:50:11.394Z,4.70
2023-05-14T09:53:17.771Z,4.93
2023-05-14T09:56:24.659Z,4.63
2023-05-14T09:59:26.893Z,4.05
2023-05-14T10:02:41.367Z,3.97
2023-05-14T10:05:49.168Z,4.50
2023-05-14T10:09:01.394Z,3.92
2023-05-14T10:12:06.821Z,4.88
2023-05-14T10:15:22.831Z,4.10
2023-05-14T10:18:29.893Z,4.45
2023-05-14T10:21:35.720Z,5.13
2023-05-14T10:24:45.996Z,4.95
2023-05-14T10:27:48.842Z,4.93
2023-05-14T10:30:51.238Z,5.00
2023-05-14T10:33:54.706Z,4.90
2023-05-14T10:37:02.159Z,5.07
2023-05-14T10:40:08.439Z,4.70
2023-05-14T10:43:14.099Z,5.50
2023-05-14T10:46:18.669Z,5.72
2023-05-14T10:49:36.166Z,5.30
2023-05-14T10:52:46.505Z,4.95
2023-05-14T10:55:54.781Z,4.95
2023-05-14T10:59:02.356Z,4.80
2023-05-14T11:02:22.975Z,4.95
2023-05-14T11:05:27.520Z,5.05
2023-05-14T11:08:31.275Z,4.72
2023-05-14T11:11:36.089Z,5.57
2023-05-14T11:14:44.334Z,5.50
2023-05-14T11:17:50.948Z,5.63
2023-05-14T11:20:53.326Z,5.55
2023-05-14T11:23:57.191Z,5.35
2023-05-14T11:27:01.919Z,5.78
2023-05-14T11:30:26.969Z,6.35
2023-05-14T11:33:31.445Z,5.30
2023-05-14T11:36:39.073Z,5.63
2023-05-14T11:39:49.585Z,4.72
2023-05-14T11:42:54.341Z,5.43
2023-05-14T11:45:56.773Z,5.15
2023-05-14T11:48:59.244Z,5.93
2023-05-14T11:52:03.524Z,5.13
2023-05-14T11:55:12.703Z,5.35
2023-05-14T11:58:17.022Z,4.93
2023-05-14T12:01:21.499Z,4.70
2023-05-14T12:04:26.187Z,5.30
2023-05-14T12:07:34.298Z,5.50
2023-05-14T12:10:42.794Z,4.93
2023-05-14T12:13:47.297Z,5.22
2023-05-14T12:16:52.858Z,4.82
2023-05-14T12:26:08.741Z,4.30
2023-05-14T12:29:13.108Z,3.92
2023-05-14T12:32:15.656Z,5.47
2023-05-14T12:35:17.986Z,5.25
2023-05-14T12:38:25.053Z,4.80
2023-05-14T12:41:28.296Z,5.75
2023-05-14T12:44:30.623Z,4.88
2023-05-14T12:47:33.210Z,4.80
2023-05-14T12:50:37.695Z,5.07
2023-05-14T12:53:42.377Z,5.30
2023-05-14T12:56:47.312Z,5.40
2023-05-14T12:59:49.606Z,5.68
2023-05-14T13:02:53.096Z,5.38
2023-05-14T13:05:57.553Z,5.75
2023-05-14T13:09:03.028Z,5.40
2023-05-14T13:12:08.064Z,5.32
2023-05-14T13:15:13.718Z,5.28
2023-05-14T13:18:20.963Z,5.43
2023-05-14T13:21:23.274Z,6.57
2023-05-14T13:24:29.303Z,5.80
2023-05-14T13:27:31.744Z,6.03
2023-05-14T13:30:36.591Z,5.75
2023-05-14T13:33:42.960Z,6.03
2023-05-14T13:36:49.300Z,5.90
2023-05-14T13:39:54.049Z,5.75
2023-05-14T13:42:58.800Z,5.93
2023-05-14T13:46:04.836Z,6.43
2023-05-14T13:49:09.716Z,6.50
2023-05-14T13:52:12.113Z,6.38
2023-05-14T13:55:19.309Z,6.75
2023-05-14T13:58:22.060Z,6.70
2023-05-14T14:01:24.522Z,5.97
2023-05-14T14:04:29.122Z,5.93
2023-05-14T14:07:31.517Z,6.05
2023-05-14T14:10:33.847Z,7.30
2023-05-14T14:13:38.353Z,6.32
2023-05-14T14:16:40.961Z,6.65
2023-05-14T14:19:46.910Z,6.57
2023-05-14T14:22:49.227Z,7.10
2023-05-14T14:25:54.009Z,7.32
2023-05-14T14:28:58.738Z,6.18
2023-05-14T14:32:01.156Z,6.18
2023-05-14T14:35:03.715Z,6.22
2023-05-14T14:38:06.022Z,4.47
2023-05-14T14:41:10.563Z,4.80
2023-05-14T14:44:12.924Z,5.35
2023-05-14T14:47:17.523Z,4.75
2023-05-14T14:50:19.851Z,4.75
2023-05-14T14:53:25.078Z,3.53
2023-05-14T14:56:30.147Z,3.47
2023-05-14T14:59:32.479Z,4.28
2023-05-14T15:02:34.969Z,4.25
2023-05-14T15:05:37.773Z,4.00
2023-05-14T15:08:44.723Z,3.83
2023-05-14T15:11:47.195Z,4.07
2023-05-14T15:14:49.441Z,4.25
2023-05-14T15:17:54.521Z,4.25
2023-05-14T15:20:59.360Z,3.88
2023-05-14T15:24:03.988Z,3.80
2023-05-14T15:27:06.380Z,5.00
2023-05-14T15:30:11.548Z,4.00
2023-05-14T15:33:21.352Z,4.00
2023-05-14T15:36:25.947Z,3.95
2023-05-14T15:39:29.593Z,4.25
2023-05-14T15:42:32.460Z,4.43
2023-05-14T15:45:34.683Z,3.75
2023-05-14T15:48:37.412Z,3.40
2023-05-14T15:51:39.709Z,4.93
2023-05-14T15:54:46.464Z,4.50
2023-05-14T15:57:48.791Z,4.00
2023-05-14T16:00:51.009Z,4.53
2023-05-14T16:03:55.802Z,4.53
2023-05-14T16:07:05.474Z,3.80
2023-05-14T16:10:09.227Z,4.43
2023-05-14T16:13:13.957Z,4.35
2023-05-14T16:16:18.012Z,4.03
2023-05-14T16:19:22.244Z,3.90
2023-05-14T16:22:24.580Z,3.42
2023-05-14T16:25:26.914Z,3.38
2023-05-14T16:28:29.436Z,3.15
2023-05-14T16:31:36.274Z,3.42
2023-05-14T16:34:38.694Z,4.13
2023-05-14T16:37:43.385Z,3.22
2023-05-14T16:40:45.765Z,3.25
2023-05-14T16:43:48.550Z,3.60
2023-05-14T16:46:51.226Z,2.90
2023-05-14T16:49:55.872Z,3.15
2023-05-14T16:52:58.147Z,3.35
2023-05-14T16:56:03.635Z,3.67
2023-05-14T17:05:14.817Z,3.35
2023-05-14T17:08:19.561Z,3.00
2023-05-14T17:11:22.002Z,3.28
2023-05-14T17:14:26.859Z,3.60
2023-05-14T17:17:29.124Z,3.10
2023-05-14T17:20:36.096Z,3.53
2023-05-14T17:23:42.416Z,3.70
2023-05-14T17:26:47.399Z,3.55
2023-05-14T17:29:52.518Z,3.45
2023-05-14T17:32:54.804Z,3.42
2023-05-14T17:35:57.161Z,4.07
2023-05-14T17:38:59.358Z,4.13
2023-05-14T17:42:03.537Z,3.60
2023-05-14T17:45:06.417Z,4.05
2023-05-14T17:48:11.238Z,3.53
2023-05-14T17:51:18.392Z,4.38
2023-05-14T17:54:23.651Z,4.53
2023-05-14T17:57:30.709Z,4.45
2023-05-14T18:00:37.782Z,3.95
2023-05-14T18:03:42.824Z,4.13
2023-05-14T18:06:46.409Z,4.60
2023-05-14T18:09:48.883Z,4.28
2023-05-14T18:12:53.462Z,4.70
2023-05-14T18:15:57.968Z,4.78
2023-05-14T18:19:03.186Z,5.22
2023-05-14T18:22:08.015Z,4.63
2023-05-14T18:25:10.476Z,4.30
2023-05-14T18:28:12.921Z,6.68
2023-05-14T18:31:15.308Z,4.45
2023-05-14T18:34:23.653Z,4.82
2023-05-14T18:37:27.070Z,4.55
2023-05-14T18:40:29.357Z,4.72
2023-05-14T18:43:31.908Z,4.50
2023-05-14T18:46:34.295Z,5.15
2023-05-14T18:49:38.733Z,5.13
2023-05-14T18:52:41.226Z,4.70
2023-05-14T18:55:45.919Z,4.28
2023-05-14T18:58:48.173Z,5.45
2023-05-14T19:01:50.464Z,4.85
2023-05-14T19:04:53.352Z,4.90
2023-05-14T19:07:58.223Z,4.25
2023-05-14T19:11:02.952Z,5.28
2023-05-14T19:14:09.078Z,5.00
2023-05-14T19:17:15.186Z,5.47
2023-05-14T19:20:19.761Z,4.97
2023-05-14T19:23:22.186Z,5.05
2023-05-14T19:26:26.776Z,5.38
2023-05-14T19:29:29.218Z,4.32
2023-05-14T19:32:37.645Z,4.88
2023-05-14T19:35:44.603Z,4.78
2023-05-14T19:38:47.458Z,4.88
2023-05-14T19:41:49.727Z,5.40
2023-05-14T19:44:51.974Z,4.50
2023-05-14T19:47:56.707Z,4.00
2023-05-14T19:51:04.887Z,4.97
2023-05-14T19:54:07.141Z,4.53
2023-05-14T19:57:09.592Z,4.70
2023-05-14T20:00:12.263Z,4.38
2023-05-14T20:03:17.004Z,5.00
2023-05-14T20:06:21.622Z,4.25
2023-05-14T20:09:26.172Z,4.47
2023-05-14T20:12:28.437Z,5.03
2023-05-14T20:15:33.037Z,4.78
2023-05-14T20:18:35.375Z,4.82
2023-05-14T20:21:37.730Z,5.00
2023-05-14T20:24:41.144Z,4.65
2023-05-14T20:27:45.627Z,4.95
2023-05-14T20:30:50.133Z,4.93
2023-05-14T20:33:54.889Z,5.30
2023-05-14T20:36:58.163Z,4.85
2023-05-14T20:40:04.953Z,4.88
2023-05-14T20:43:07.409Z,5.50
2023-05-14T20:46:09.806Z,4.75
2023-05-14T20:49:14.351Z,5.00
2023-05-14T20:52:19.144Z,5.00
2023-05-14T20:55:24.205Z,5.35
2023-05-14T20:58:26.906Z,5.82
2023-05-14T21:01:31.713Z,5.88
2023-05-14T21:04:36.748Z,5.05
2023-05-14T21:07:41.327Z,4.97
2023-05-14T21:10:45.829Z,5.00
2023-05-14T21:13:49.123Z,4.45
2023-05-14T21:16:51.521Z,4.57
2023-05-14T21:19:53.703Z,4.80
2023-05-14T21:22:55.929Z,5.20
2023-05-14T21:26:00.684Z,5.55
2023-05-14T21:29:06.172Z,4.93
2023-05-14T21:32:11.298Z,4.97
2023-05-14T21:35:13.737Z,5.25
2023-05-14T21:38:16.104Z,4.72
2023-05-14T21:41:18.464Z,4.30
2023-05-14T21:44:22.051Z,5.13
2023-05-14T21:47:24.555Z,4.15
2023-05-14T21:50:32.174Z,4.90
2023-05-14T21:53:34.796Z,4.70
2023-05-14T21:56:37.278Z,4.25
2023-05-14T21:59:42.519Z,4.05
2023-05-14T22:02:47.316Z,4.35
2023-05-14T22:05:57.302Z,4.53
2023-05-14T22:08:59.524Z,3.92
2023-05-14T22:12:01.855Z,4.10
2023-05-14T22:15:12.314Z,4.40
2023-05-14T22:18:19.443Z,3.85
2023-05-14T22:21:21.693Z,4.30
2023-05-14T22:24:23.904Z,4.00
2023-05-14T22:27:28.977Z,5.10
2023-05-14T22:30:31.235Z,4.78
2023-05-14T22:33:36.579Z,4.90
2023-05-14T22:36:39.063Z,4.70
2023-05-14T22:39:43.879Z,4.43
2023-05-14T22:42:46.221Z,4.43
2023-05-14T22:45:48.614Z,5.22
2023-05-14T22:48:55.630Z,4.20
2023-05-14T22:51:57.982Z,4.70
2023-05-14T22:58:05.689Z,4.50
2023-05-14T23:01:10.126Z,4.50
2023-05-14T23:04:12.359Z,5.32
2023-05-14T23:07:15.321Z,4.82
2023-05-14T23:10:19.846Z,4.90
2023-05-14T23:13:26.360Z,4.63
2023-05-14T23:16:31.843Z,4.28
2023-05-14T23:19:36.966Z,4.90
2023-05-14T23:22:40.146Z,5.18
2023-05-14T23:25:42.489Z,5.10
2023-05-14T23:28:44.807Z,5.22
2023-05-14T23:31:51.889Z,6.15
2023-05-14T23:34:54.306Z,5.75
2023-05-14T23:37:56.719Z,6.22
2023-05-14T23:41:01.360Z,7.00
2023-05-14T23:44:03.789Z,7.80
2023-05-14T23:47:08.829Z,7.40
2023-05-14T23:50:11.230Z,7.75
2023-05-14T23:53:13.658Z,7.75
2023-05-14T23:56:16.627Z,6.63
2023-05-14T23:59:21.511Z,6.25
